createdAt,value
2018-11-22T12:15:53.690Z,5.27
2018-11-22T12:18:24.361Z,5.28
2018-11-22T12:20:55.268Z,5.32
2018-11-22T12:23:25.722Z,5.12
2018-11-22T12:25:56.285Z,5.02
2018-11-22T12:28:26.841Z,5.07
2018-11-22T12:30:57.261Z,5.16
2018-11-22T12:33:43.869Z,5.25
2018-11-22T12:36:19.460Z,5.13
2018-11-22T12:38:49.974Z,5.16
2018-11-22T12:41:20.688Z,5.17
2018-11-22T12:43:51.434Z,5.16
2018-11-22T12:46:21.980Z,5.27
2018-11-22T12:48:52.399Z,5.24
2018-11-22T12:51:22.903Z,5.26
2018-11-22T12:53:53.264Z,5.29
2018-11-22T12:56:23.721Z,5.28
2018-11-22T12:58:54.231Z,5.28
2018-11-22T13:01:24.876Z,5.38
2018-11-22T13:03:55.398Z,5.51
2018-11-22T13:06:25.956Z,5.38
2018-11-22T13:08:56.543Z,5.35
2018-11-22T13:11:26.977Z,5.28
2018-11-22T13:13:57.467Z,5.34
2018-11-22T13:16:27.833Z,5.39
2018-11-22T13:18:59.374Z,5.24
2018-11-22T13:21:28.873Z,5.24
2018-11-22T13:23:59.604Z,5.24
2018-11-22T13:26:30.246Z,5.15
2018-11-22T13:29:00.761Z,5.15
2018-11-22T13:31:31.252Z,5.23
2018-11-22T13:34:01.711Z,5.28
2018-11-22T13:36:32.431Z,5.20
2018-11-22T13:39:03.120Z,5.18
2018-11-22T13:41:33.594Z,5.21
2018-11-22T13:44:03.948Z,5.17
2018-11-22T13:46:34.446Z,5.21
2018-11-22T13:49:05.397Z,5.26
2018-11-22T13:51:36.732Z,5.15
2018-11-22T13:54:06.714Z,5.14
2018-11-22T13:56:38.067Z,5.10
2018-11-22T13:59:08.657Z,4.98
2018-11-22T14:01:39.032Z,4.94
2018-11-22T14:04:09.529Z,4.83
2018-11-22T14:06:40.242Z,4.87
2018-11-22T14:09:11.391Z,4.87
2018-11-22T14:11:41.841Z,4.90
2018-11-22T14:14:12.368Z,4.83
2018-11-22T14:16:42.777Z,4.76
2018-11-22T14:19:16.321Z,4.79
2018-11-22T14:21:46.844Z,4.78
2018-11-22T14:24:17.298Z,4.79
2018-11-22T14:26:47.817Z,4.82
2018-11-22T14:29:18.364Z,4.79
2018-11-22T14:31:48.793Z,4.95
2018-11-22T14:34:19.389Z,4.97
2018-11-22T14:36:50.092Z,5.01
2018-11-22T14:39:20.465Z,4.93
2018-11-22T14:41:50.830Z,4.85
2018-11-22T14:44:21.283Z,4.79
2018-11-22T14:46:51.790Z,4.78
2018-11-22T14:49:22.304Z,4.79
2018-11-22T14:51:54.050Z,4.76
2018-11-22T14:54:24.476Z,4.68
2018-11-22T14:56:56.174Z,4.65
2018-11-22T14:59:26.618Z,4.60
2018-11-22T15:01:57.562Z,4.62
2018-11-22T15:04:27.966Z,4.59
2018-11-22T15:07:00.652Z,4.56
2018-11-22T15:09:31.278Z,4.57
2018-11-22T15:12:01.793Z,4.54
2018-11-22T15:14:32.551Z,4.51
2018-11-22T15:17:03.087Z,4.50
2018-11-22T15:19:33.886Z,4.51
2018-11-22T15:22:04.602Z,4.49
2018-11-22T15:24:35.020Z,4.45
2018-11-22T15:27:05.684Z,4.45
2018-11-22T15:29:36.198Z,4.41
2018-11-22T15:32:06.756Z,4.39
2018-11-22T15:34:37.262Z,4.37
2018-11-22T15:37:07.882Z,4.35
2018-11-22T15:39:38.852Z,4.32
2018-11-22T15:42:09.426Z,4.29
2018-11-22T15:44:40.105Z,4.27
2018-11-22T15:47:10.912Z,4.27
2018-11-22T15:49:41.558Z,4.23
2018-11-22T15:52:12.038Z,4.22
2018-11-22T15:54:42.730Z,4.21
2018-11-22T15:57:13.890Z,4.22
2018-11-22T15:59:44.328Z,4.20
2018-11-22T16:02:14.932Z,4.19
2018-11-22T16:04:45.682Z,4.16
2018-11-22T16:07:16.146Z,4.15
2018-11-22T16:09:46.626Z,4.11
2018-11-22T16:12:17.199Z,4.11
2018-11-22T16:14:47.776Z,4.07
2018-11-22T16:17:18.353Z,4.05
2018-11-22T16:19:49.927Z,4.04
2018-11-22T16:22:20.499Z,4.02
2018-11-22T16:24:50.847Z,3.97
2018-11-22T16:27:21.174Z,3.95
2018-11-22T16:29:51.796Z,3.96
2018-11-22T16:32:22.659Z,3.93
2018-11-22T16:34:53.333Z,3.84
2018-11-22T16:37:24.135Z,3.77
2018-11-22T16:39:54.815Z,3.68
2018-11-22T16:42:25.391Z,3.62
2018-11-22T16:44:55.944Z,3.59
2018-11-22T16:47:26.478Z,3.61
2018-11-22T16:49:57.005Z,3.62
2018-11-22T16:52:27.481Z,3.66
2018-11-22T16:54:58.183Z,3.68
2018-11-22T16:57:28.871Z,3.62
2018-11-22T16:59:59.538Z,3.55
2018-11-22T17:02:30.284Z,3.45
2018-11-22T17:05:01.020Z,3.42
2018-11-22T17:07:31.472Z,3.40
2018-11-22T17:10:02.056Z,3.39
2018-11-22T17:12:32.538Z,3.43
2018-11-22T17:15:03.116Z,3.46
2018-11-22T17:17:33.663Z,3.48
2018-11-22T17:20:04.514Z,3.51
2018-11-22T17:22:36.391Z,3.55
2018-11-22T17:25:09.756Z,3.59
2018-11-22T17:27:40.446Z,3.64
2018-11-22T17:30:14.466Z,3.69
2018-11-22T17:32:45.459Z,3.71
2018-11-22T17:35:20.168Z,3.70
2018-11-22T17:37:50.981Z,3.70
2018-11-22T17:40:25.924Z,3.69
2018-11-22T17:42:56.394Z,3.65
2018-11-22T17:45:28.334Z,3.61
2018-11-22T17:47:58.865Z,3.61
2018-11-22T17:50:30.878Z,3.62
2018-11-22T17:53:01.872Z,3.62
2018-11-22T17:55:33.411Z,3.61
2018-11-22T17:58:04.209Z,3.62
2018-11-22T18:00:37.198Z,3.64
2018-11-22T18:03:08.068Z,3.64
2018-11-22T18:05:38.732Z,3.64
2018-11-22T18:08:09.104Z,3.61
2018-11-22T18:10:40.757Z,3.57
2018-11-22T18:13:11.194Z,3.56
2018-11-22T18:15:57.103Z,3.54
2018-11-22T18:18:28.628Z,3.52
2018-11-22T18:20:59.312Z,3.50
2018-11-22T18:26:07.553Z,3.42
2018-11-22T18:28:38.515Z,3.38
2018-11-22T18:31:08.863Z,3.40
2018-11-22T18:33:39.360Z,3.39
2018-11-22T18:36:10.424Z,3.39
2018-11-22T18:38:40.974Z,3.36
2018-11-22T18:41:11.556Z,3.36
2018-11-22T18:43:44.407Z,3.35
2018-11-22T18:46:14.819Z,3.35
2018-11-22T18:48:45.296Z,3.36
2018-11-22T18:51:15.997Z,3.38
2018-11-22T18:53:46.449Z,3.38
2018-11-22T18:56:19.746Z,3.39
2018-11-22T18:58:50.583Z,3.40
2018-11-22T19:01:21.412Z,3.42
2018-11-22T19:03:51.869Z,3.42
2018-11-22T19:06:22.711Z,3.45
2018-11-22T19:08:53.689Z,3.47
2018-11-22T19:11:27.546Z,3.48
2018-11-22T19:13:58.113Z,3.47
2018-11-22T19:16:31.137Z,3.45
2018-11-22T19:19:01.678Z,3.44
2018-11-22T19:21:40.907Z,3.43
2018-11-22T19:24:06.536Z,3.46
2018-11-22T19:26:37.040Z,3.45
2018-11-22T19:29:08.004Z,3.45
2018-11-22T19:31:38.647Z,3.47
2018-11-22T19:34:09.385Z,3.45
2018-11-22T19:36:40.055Z,3.43
2018-11-22T19:39:10.818Z,3.41
2018-11-22T19:41:41.447Z,3.38
2018-11-22T19:44:12.148Z,3.38
2018-11-22T19:46:45.384Z,3.35
2018-11-22T19:49:16.038Z,3.31
2018-11-22T19:51:47.269Z,3.25
2018-11-22T19:54:18.220Z,3.17
2018-11-22T19:56:49.123Z,3.15
2018-11-22T19:59:20.273Z,3.13
2018-11-22T20:01:51.450Z,3.15
2018-11-22T20:04:22.546Z,3.16
2018-11-22T20:06:53.101Z,3.19
2018-11-22T20:09:23.718Z,3.19
2018-11-22T20:11:54.526Z,3.20
2018-11-22T20:14:25.068Z,3.18
2018-11-22T20:16:55.888Z,3.19
2018-11-22T20:19:26.393Z,3.20
2018-11-22T20:21:57.168Z,3.22
2018-11-22T20:24:27.738Z,3.26
2018-11-22T20:26:58.482Z,3.27
2018-11-22T20:29:29.151Z,3.27
2018-11-22T20:31:59.723Z,3.23
2018-11-22T20:34:30.247Z,3.23
2018-11-22T20:37:01.010Z,3.22
2018-11-22T20:39:31.535Z,3.23
2018-11-22T20:42:02.210Z,3.21
2018-11-22T20:44:32.816Z,3.23
2018-11-22T20:47:03.441Z,3.26
2018-11-22T20:49:34.269Z,3.26
2018-11-22T20:52:04.787Z,3.26
2018-11-22T20:54:35.312Z,3.30
2018-11-22T20:57:06.005Z,3.30
2018-11-22T20:59:36.841Z,3.30
2018-11-22T21:02:07.610Z,3.31
2018-11-22T21:04:38.136Z,3.31
2018-11-22T21:07:08.842Z,3.30
2018-11-22T21:09:39.396Z,3.27
2018-11-22T21:12:10.022Z,3.25
2018-11-22T21:14:40.732Z,3.22
2018-11-22T21:17:11.250Z,3.17
2018-11-22T21:19:41.939Z,3.13
2018-11-22T21:22:12.747Z,3.10
2018-11-22T21:24:43.296Z,3.03
2018-11-22T21:27:13.690Z,2.96
2018-11-22T21:29:44.219Z,2.88
2018-11-22T21:32:14.888Z,2.78
2018-11-22T21:34:45.422Z,2.68
2018-11-22T21:37:15.886Z,2.58
2018-11-22T21:39:46.536Z,2.52
2018-11-22T21:42:17.316Z,2.48
2018-11-22T21:44:47.624Z,2.48
2018-11-22T21:47:18.210Z,2.50
2018-11-22T21:49:53.322Z,2.56
2018-11-22T21:52:23.830Z,2.55
2018-11-22T21:54:54.328Z,2.53
2018-11-22T21:57:24.948Z,2.54
2018-11-22T21:59:55.443Z,2.58
2018-11-22T22:02:25.893Z,2.62
2018-11-22T22:04:56.414Z,2.65
2018-11-22T22:07:26.962Z,2.64
2018-11-22T22:09:57.694Z,2.59
2018-11-22T22:12:28.380Z,2.55
2018-11-22T22:14:58.798Z,2.50
2018-11-22T22:17:29.328Z,2.47
2018-11-22T22:19:59.776Z,2.47
2018-11-22T22:22:30.276Z,2.46
2018-11-22T22:25:02.086Z,2.47
2018-11-22T22:27:32.642Z,2.45
2018-11-22T22:30:03.418Z,2.41
2018-11-22T22:32:34.032Z,2.38
2018-11-22T22:35:06.258Z,2.36
2018-11-22T22:37:37.344Z,2.37
2018-11-22T22:40:10.798Z,2.40
2018-11-22T22:42:42.433Z,2.42
2018-11-22T22:45:14.053Z,2.43
2018-11-22T22:47:45.444Z,2.45
2018-11-22T22:50:22.954Z,2.49
2018-11-22T22:52:54.904Z,2.49
2018-11-22T22:55:25.466Z,2.49
2018-11-22T22:57:58.951Z,2.47
2018-11-22T23:00:50.660Z,2.46
2018-11-22T23:03:21.506Z,2.45
2018-11-22T23:05:52.105Z,2.49
2018-11-22T23:08:22.808Z,2.51
2018-11-22T23:10:53.444Z,2.50
2018-11-22T23:13:24.140Z,2.49
2018-11-22T23:15:56.627Z,2.48
2018-11-22T23:18:27.156Z,2.47
2018-11-22T23:20:57.745Z,2.47
2018-11-22T23:23:28.318Z,2.43
2018-11-22T23:25:58.958Z,2.39
2018-11-22T23:28:29.780Z,2.40
2018-11-22T23:31:00.349Z,2.40
2018-11-22T23:33:31.284Z,2.41
2018-11-22T23:36:01.700Z,2.43
2018-11-22T23:38:32.288Z,2.45
2018-11-22T23:41:02.825Z,2.42
2018-11-22T23:43:33.668Z,2.44
2018-11-22T23:46:04.213Z,2.46
2018-11-22T23:48:34.566Z,2.45
2018-11-22T23:51:05.195Z,2.47
2018-11-22T23:53:35.694Z,2.47
2018-11-22T23:56:07.191Z,2.48
2018-11-22T23:58:38.503Z,2.48
